Aérodrome :
LOGIN :

S'inscrire | Disclaimer

   EN    FR    IT 

 










Légende :    VFR   VFR Marginal   IFR   IFR Intensif   IFR Très Intensif
Visi : 
Plafond : 
>= 8 km
>= 3000ft
5 à 8 km
1000 à 3000 ft
1500m à 5 km
500 à 1000 ft
800 à 1500m
200 à 500 ft
< 800m
< 200 ft
Symboles :   Orages  Brouillard  Fortes neiges  Fortes précipitations  Vent > 20 kt
SIGMETs :   Divers  Orages  Givrage  Turbulence  Onde Orograph.  Cendres Volcan.






- Altitude de l'aérodrome : 226 ft
- Code IATA : BEX


EGUB - RAF Benson

DERNIER METAR :
  • 181950Z 21006KT 9999 FEW020 BKN200 11/09 Q1013 TEMPO 5000 SHRA SCT020CB RMK BLU TEMPO WHT

METARs EXPIRÉS :
  • 181921Z 29006KT 8000 +SHRA SCT021CB BKN050 11/07 Q1013 TEMPO 9999 NSW FEW021CB RMK WHT TEMPO BLU
  • 181850Z 23006KT 9999 VCSH FEW025CB BKN028 12/09 Q1013 TEMPO 5000 SHRA SCT024CB RMK BLU TEMPO WHT
  • 181823Z 26006KT 9999 VCSH FEW024CB SCT070 13/09 Q1013 NOSIG RMK BLU BLU
  • 181750Z 22009KT 9999 VCSH FEW025CB SCT200 14/07 Q1013 NOSIG RMK BLU BLU
  • 181724Z 22012KT 9999 VCSH FEW025CB SCT200 15/07 Q1012 NOSIG RMK BLU BLU

TAF TAF EGUB
Valide du 18 à 15h jusqu'au 19 à 00h UTC


181342Z 1815/1824 22008KT 9999 SCT045
TEMPO 1815/1820 7000 SHRA BKN028CB
PROB30
TEMPO 1815/1819 22015G25KT 3000 +TSRA BKN022CB
ATIS : +44 1491-837766 (x7524)



MET'MAP, la Météo Aéronautique d'un coup d'oeil ! - Copyright ORBIFLY Décembre 2007 - Disclaimer

ORBIFLY MET'MAP TEAM :

Programmation & Développement : Alexandra Zaïnal
Sur une idée originale de : Baudouin d'Aumeries
Assistance à la programmation : Marc-Olivier Méhu
Soutien technique & logistique : Manuel Goepfert

Contact : metmap@orbifly.com




SOURCES & CREDITS :

   NOAA